• Join FlightAware (Why Join?)
  • Login
  • US Flag 
11:47PM EST


 

Airport Tracker/Info


-or-


 

Live Flight TrackerFlight Track Log ✈ KAL894 ✈ 24/Jun/2013 ✈ ZSPD / PVG - RKSI / ICN

Flight Track Log - Related Links

Times and Time Zones

All times are in EDT time to prevent confusion due to time zone crossing. See the KAL894 flight status page for this flight to view local times or setup timezone preferences in your user account.

Time Position Orientation Groundspeed Altitude Reporting Facility
EDT Latitude Longitude Course Direction KTS MPH feet Rate Location/Type
11:44PM 31.3130 121.8380 North 279 321 6,800  Level FlightAware
11:45PM 31.3600 121.8490 11° North 285 328 8,700 2,820 Climbing FlightAware
11:45PM 31.3770 121.8650 39° Northeast 300 345 9,400 3,180 Climbing FlightAware
11:46PM 31.3920 121.8920 57° Northeast 315 362 10,300 1,800 Climbing FlightAware
11:46PM 31.4240 121.9560 60° Northeast 364 419 11,100 1,740 Climbing FlightAware
11:47PM 31.4640 122.0370 60° Northeast 389 448 12,800 2,100 Climbing FlightAware
11:48PM 31.5000 122.1110 60° Northeast 394 453 14,100 1,920 Climbing FlightAware
11:48PM 31.5320 122.1780 61° Northeast 401 461 15,400 900 Climbing FlightAware
11:49PM 31.5860 122.2900 60° Northeast 401 461 15,700 180 Climbing FlightAware
11:50PM 31.6130 122.3480 61° Northeast 401 461 15,700  Level FlightAware
11:50PM 31.6310 122.4130 72° East 412 474 15,700  Level FlightAware
11:51PM 31.6400 122.4870 82° East 414 476 15,700 420 Level FlightAware
11:52PM 31.6550 122.5970 81° East 417 480 16,300 360 Climbing FlightAware
11:52PM 31.6650 122.6710 81° East 417 480 16,300 1,260 Level FlightAware
11:53PM 31.6890 122.8530 81° East 437 503 18,700 960 Climbing FlightAware
11:55PM 31.7100 123.0070 81° East 433 498 18,700 1,260 Level FlightAware
11:56PM 31.7280 123.1410 81° East 433 498 21,400 1,800 Climbing FlightAware
11:56PM 31.7370 123.2120 82° East 433 498 21,400  Level FlightAware
11:57PM 31.7500 123.3090 81° East 433 498 21,400  Level FlightAware
11:58PM 31.7600 123.3840 81° East 433 498 21,400  Level FlightAware
11:58PM 31.7700 123.4570 81° East 433 498 21,400  Level FlightAware
11:59PM 31.7830 123.5540 81° East 433 498 21,400 1,740 Level FlightAware
12:02AM 31.9370 123.6271 22° Northeast  Level Estimated
12:02AM 31.7710 123.9400 22° Northeast 477 549 27,000  Level FlightAware
12:02AM 31.7870 124.0460 80° East 476 548 27,000  Level FlightAware
12:03AM 31.8030 124.1550 80° East 476 548 27,000  Level FlightAware
12:03AM 31.8150 124.2330 80° East 476 548 27,000  Level FlightAware
12:04AM 31.8300 124.3370 80° East 476 548 27,000  Level FlightAware
12:05AM 31.8420 124.4170 80° East 476 548 27,000  Level FlightAware
12:06AM 31.8580 124.5190 80° East 476 548 27,000  Level FlightAware
12:08AM 31.9792 124.5580 15° North  Level Estimated
12:09AM 32.0460 124.5795 15° North  Level Estimated
12:10AM 32.1127 124.6011 15° North  Level Estimated
12:11AM 32.1794 124.6227 15° North  Level Estimated
12:12AM 32.2461 124.6443 15° North  Level Estimated
12:13AM 32.3129 124.6659 15° North  Level Estimated
12:14AM 32.3796 124.6876 15° North  Level Estimated
12:15AM 32.4463 124.7093 15° North  Level Estimated
12:16AM 32.5130 124.7310 15° North  Level Estimated
12:17AM 32.5797 124.7528 15° North  Level Estimated
12:18AM 32.6464 124.7746 15° North  Level Estimated
12:19AM 32.7131 124.7965 15° North  Level Estimated
12:20AM 32.7804 124.8185 15° North  Level Estimated
12:21AM 32.8477 124.8407 15° North  Level Estimated
12:22AM 32.9150 124.8628 15° North  Level Estimated
12:23AM 32.9823 124.8850 15° North  Level Estimated
12:24AM 33.0496 124.9072 15° North  Level Estimated
12:25AM 33.1169 124.9294 15° North  Level Estimated
12:26AM 33.1842 124.9517 15° North  Level Estimated
12:27AM 33.2515 124.9740 15° North  Level Estimated
12:28AM 33.3188 124.9964 16° North  Level Estimated
12:29AM 33.3861 125.0188 16° North  Level Estimated
12:30AM 33.4534 125.0412 16° North  Level Estimated
12:31AM 33.5207 125.0636 16° North  Level Estimated
12:32AM 33.5879 125.0861 16° North  Level Estimated
12:33AM 33.6552 125.1086 16° North  Level Estimated
12:34AM 33.7225 125.1312 16° North  Level Estimated
12:35AM 33.7897 125.1538 16° North  Level Estimated
12:36AM 33.8570 125.1764 16° North  Level Estimated
12:37AM 33.9242 125.1991 16° North  Level Estimated
12:38AM 33.9915 125.2218 16° North  Level Estimated
12:39AM 34.0587 125.2445 16° North  Level Estimated
12:40AM 34.1260 125.2673 16° North  Level Estimated
12:41AM 34.1932 125.2901 16° North  Level Estimated
12:42AM 34.2604 125.3129 16° North  Level Estimated
12:43AM 34.3276 125.3358 16° North  Level Estimated
12:44AM 34.3949 125.3587 16° North  Level Estimated
12:45AM 34.4621 125.3817 16° North  Level Estimated
12:46AM 34.5293 125.4047 16° North  Level Estimated
12:47AM 34.5965 125.4277 16° North  Level Estimated
12:48AM 34.6637 125.4508 16° North  Level Estimated
12:49AM 34.7309 125.4739 16° North  Level Estimated
12:50AM 34.7981 125.4970 16° North  Level Estimated
12:51AM 34.8653 125.5202 16° North  Level Estimated
12:52AM 34.9325 125.5434 16° North  Level Estimated
12:53AM 34.9997 125.5667 16° North  Level Estimated
12:54AM 35.0668 125.5900 16° North  Level Estimated
12:55AM 35.1340 125.6133 16° North  Level Estimated
12:56AM 35.2012 125.6367 16° North  Level Estimated
12:57AM 35.2683 125.6601 16° North  Level Estimated
12:58AM 35.3355 125.6835 16° North  Level Estimated
12:59AM 35.4027 125.7070 16° North  Level Estimated
01:00AM 35.4698 125.7306 16° North  Level Estimated
01:01AM 35.5370 125.7541 16° North  Level Estimated
01:02AM 35.6041 125.7777 16° North  Level Estimated
01:03AM 35.6712 125.8014 16° North  Level Estimated
01:04AM 35.7384 125.8250 16° North  Level Estimated
01:05AM 35.8055 125.8488 16° North  Level Estimated
01:06AM 35.8726 125.8725 16° North  Level Estimated
01:07AM 35.9398 125.8963 16° North  Level Estimated
01:08AM 36.0069 125.9202 16° North  Level Estimated
01:09AM 36.0740 125.9441 16° North  Level Estimated
01:10AM 36.1411 125.9680 16° North  Level Estimated
01:11AM 36.2082 125.9920 16° North  Level Estimated
01:12AM 36.2753 126.0160 16° North  Level Estimated
01:13AM 36.3424 126.0400 16° North  Level Estimated
01:14AM 36.4095 126.0641 16° North  Level Estimated
01:15AM 36.4765 126.0882 16° North  Level Estimated
01:16AM 36.5436 126.1124 16° North  Level Estimated
01:17AM 36.6107 126.1366 16° North  Level Estimated
01:18AM 36.6777 126.1609 16° North  Level Estimated
01:19AM 36.7448 126.1852 16° North  Level Estimated
01:20AM 36.8119 126.2095 16° North  Level Estimated
01:21AM 36.8789 126.2339 16° North  Level Estimated
01:22AM 36.9460 126.2583 16° North  Level Estimated